Time;durP1;ratioP1;P1;durP2;ratioP2;P2;SDS_P1;SDS_P2;PMS_P1;PMS_P2;Temp;Humidity;BMP_temperature;BMP_pressure;BME280_temperature;BME280_humidity;BME280_pressure;Samples;Min_cycle;Max_cycle;Signal;HPM_P1;HPM_P2
2022/11/09 00:01:42;;;;;;;39.30;23.40;;;;;;;9.94;100.00;95238.72;5001545;28;20701;-78
2022/11/09 00:04:09;;;;;;;41.43;23.23;;;;;;;9.93;100.00;95237.09;5003144;28;20211;-78
2022/11/09 00:06:36;;;;;;;41.03;24.13;;;;;;;9.95;100.00;95234.31;5002592;28;20200;-77
2022/11/09 00:09:05;;;;;;;44.80;24.97;;;;;;;9.63;100.00;95231.50;5001829;28;20188;-76
2022/11/09 00:11:32;;;;;;;38.93;23.87;;;;;;;9.40;100.00;95231.06;5003067;28;20253;-75
2022/11/09 00:14:01;;;;;;;43.50;24.50;;;;;;;8.96;100.00;95236.69;5002021;28;20200;-79
2022/11/09 00:16:28;;;;;;;43.10;25.93;;;;;;;9.01;100.00;95244.69;5000622;28;20215;-81
2022/11/09 00:18:56;;;;;;;43.70;24.70;;;;;;;9.11;100.00;95242.53;5003097;28;20214;-79
2022/11/09 00:21:25;;;;;;;45.03;25.80;;;;;;;9.23;100.00;95229.00;5004545;28;20211;-79
2022/11/09 00:23:52;;;;;;;45.10;25.80;;;;;;;9.41;100.00;95234.41;5003439;28;20200;-79
2022/11/09 00:26:20;;;;;;;48.13;25.90;;;;;;;9.50;100.00;95241.84;5006950;28;20211;-77
2022/11/09 00:28:48;;;;;;;46.03;26.40;;;;;;;9.47;100.00;95239.63;5001768;28;20204;-79
2022/11/09 00:31:17;;;;;;;49.63;25.27;;;;;;;9.25;100.00;95247.75;5002119;28;20204;-79
2022/11/09 00:33:48;;;;;;;52.13;27.97;;;;;;;9.11;100.00;95239.13;5005173;28;20238;-79
2022/11/09 00:36:16;;;;;;;50.17;27.87;;;;;;;9.18;100.00;95234.75;5004718;28;20693;-77
2022/11/09 00:38:47;;;;;;;48.33;26.43;;;;;;;9.34;100.00;95238.81;5004847;28;20283;-79
2022/11/09 00:41:14;;;;;;;50.23;25.90;;;;;;;9.51;100.00;95243.44;5004615;28;20188;-79
2022/11/09 00:43:41;;;;;;;43.20;25.23;;;;;;;9.64;100.00;95238.28;5001547;28;20207;-78
2022/11/09 00:46:08;;;;;;;41.97;25.50;;;;;;;9.71;100.00;95235.69;5001140;28;20192;-77
2022/11/09 00:48:35;;;;;;;41.57;25.83;;;;;;;9.78;100.00;95227.91;5000240;28;20195;-78
2022/11/09 00:51:03;;;;;;;45.37;25.07;;;;;;;9.99;100.00;95238.91;5001341;28;20196;-78
2022/11/09 00:53:32;;;;;;;43.70;25.10;;;;;;;10.05;100.00;95234.69;5004703;28;20720;-78
2022/11/09 00:56:00;;;;;;;44.53;25.07;;;;;;;10.08;100.00;95242.09;5010182;28;20207;-79
2022/11/09 00:58:28;;;;;;;40.23;24.33;;;;;;;10.13;100.00;95235.34;5004082;28;20220;-80
2022/11/09 01:00:56;;;;;;;40.57;25.00;;;;;;;10.16;100.00;95245.31;5004513;28;20196;-79
2022/11/09 01:03:24;;;;;;;44.17;24.07;;;;;;;10.16;100.00;95226.34;5003760;28;20692;-79
2022/11/09 01:05:52;;;;;;;42.07;24.43;;;;;;;10.28;100.00;95235.13;5000761;28;20196;-79
2022/11/09 01:08:19;;;;;;;41.50;25.37;;;;;;;10.31;100.00;95239.13;5000480;28;20200;-78
2022/11/09 01:10:48;;;;;;;51.03;27.73;;;;;;;10.31;100.00;95241.72;5000366;28;20200;-78
2022/11/09 01:13:17;;;;;;;50.10;27.23;;;;;;;10.36;100.00;95237.50;5006701;28;20199;-80
2022/11/09 01:15:45;;;;;;;49.90;29.07;;;;;;;10.24;100.00;95237.31;5004244;28;20824;-80
2022/11/09 01:18:13;;;;;;;49.23;29.90;;;;;;;9.80;100.00;95234.50;5006325;28;20595;-79
2022/11/09 01:20:41;;;;;;;53.40;30.93;;;;;;;9.53;100.00;95230.25;5001589;28;20276;-81
2022/11/09 01:23:07;;;;;;;49.37;28.33;;;;;;;9.23;100.00;95232.41;5008712;28;20207;-78
2022/11/09 01:25:35;;;;;;;50.80;27.60;;;;;;;9.25;100.00;95233.00;5002784;28;20183;-78
2022/11/09 01:28:03;;;;;;;50.77;27.33;;;;;;;9.33;100.00;95225.03;4997927;28;20204;-78
2022/11/09 01:30:30;;;;;;;49.33;26.53;;;;;;;9.36;100.00;95226.44;5004387;28;20196;-80
2022/11/09 01:32:57;;;;;;;46.53;25.83;;;;;;;8.96;100.00;95223.72;5001588;28;20211;-80
2022/11/09 01:35:24;;;;;;;48.93;26.97;;;;;;;8.78;100.00;95217.44;5004389;28;20187;-80
2022/11/09 01:37:51;;;;;;;51.90;28.03;;;;;;;8.90;100.00;95219.31;5002784;28;20219;-80
2022/11/09 01:40:17;;;;;;;55.13;29.17;;;;;;;9.05;100.00;95219.97;5000249;28;20271;-78
2022/11/09 01:42:44;;;;;;;49.17;27.27;;;;;;;9.20;100.00;95222.41;5000309;28;20203;-79
2022/11/09 01:45:28;;;;;;;56.23;30.67;;;;;;;9.36;100.00;95206.50;5002490;28;20892;-80
2022/11/09 01:48:02;;;;;;;59.87;30.87;;;;;;;9.46;100.00;95206.91;5003601;28;20248;-81
2022/11/09 01:50:38;;;;;;;57.80;32.60;;;;;;;9.33;100.00;95219.03;5000918;28;20180;-80
2022/11/09 01:53:13;;;;;;;61.03;31.37;;;;;;;9.17;100.00;95216.81;5008704;28;20242;-81
2022/11/09 01:55:40;;;;;;;56.03;29.97;;;;;;;9.01;100.00;95216.16;5003175;28;20198;-80
2022/11/09 01:58:10;;;;;;;54.53;29.40;;;;;;;9.08;100.00;95214.41;5007025;28;20215;-80
2022/11/09 02:00:41;;;;;;;53.27;27.00;;;;;;;9.15;100.00;95222.19;4998713;28;20196;-82
2022/11/09 02:03:12;;;;;;;46.90;25.47;;;;;;;9.15;100.00;95208.44;5007128;28;20192;-81
2022/11/09 02:05:41;;;;;;;43.80;24.40;;;;;;;9.28;100.00;95218.84;5003682;28;20196;-80
2022/11/09 02:08:10;;;;;;;40.00;22.50;;;;;;;9.34;100.00;95223.25;4998441;28;20189;-81
2022/11/09 02:10:43;;;;;;;42.10;22.00;;;;;;;9.32;100.00;95215.66;5000472;28;20198;-80
2022/11/09 02:13:12;;;;;;;39.03;22.83;;;;;;;9.32;100.00;95217.47;5002372;28;20192;-80
2022/11/09 02:15:41;;;;;;;45.47;23.50;;;;;;;9.35;100.00;95217.06;4995738;28;20192;-81
2022/11/09 02:18:08;;;;;;;39.83;22.77;;;;;;;9.39;100.00;95219.06;5002187;28;20230;-81
2022/11/09 02:20:47;;;;;;;38.50;22.23;;;;;;;9.46;100.00;95225.09;5000242;28;20203;-80
2022/11/09 02:23:14;;;;;;;43.73;23.63;;;;;;;9.57;100.00;95227.09;5003496;28;20231;-80
2022/11/09 02:25:42;;;;;;;41.37;23.77;;;;;;;9.63;100.00;95231.50;5004061;28;20430;-82
2022/11/09 02:28:09;;;;;;;44.40;24.73;;;;;;;9.64;100.00;95227.09;4994254;28;20196;-81
2022/11/09 02:30:37;;;;;;;38.00;22.77;;;;;;;9.61;100.00;95225.69;5009720;28;20635;-81
2022/11/09 02:33:04;;;;;;;39.90;24.53;;;;;;;9.26;100.00;95210.47;5000999;28;20200;-81
2022/11/09 02:35:30;;;;;;;40.87;24.07;;;;;;;8.84;100.00;95214.91;5006597;28;20196;-82
2022/11/09 02:37:59;;;;;;;42.27;23.20;;;;;;;8.75;100.00;95230.78;5001024;28;20219;-82
2022/11/09 02:40:31;;;;;;;40.00;24.10;;;;;;;8.44;100.00;95198.38;4999073;28;20704;-83
2022/11/09 02:42:59;;;;;;;40.73;24.20;;;;;;;8.53;100.00;95227.50;5009573;28;20184;-81
2022/11/09 02:45:27;;;;;;;38.73;23.37;;;;;;;8.57;100.00;95226.16;5009661;28;20206;-81
2022/11/09 02:47:54;;;;;;;42.10;24.27;;;;;;;8.64;100.00;95224.38;5002112;28;20191;-83
2022/11/09 02:50:20;;;;;;;39.57;22.93;;;;;;;8.73;100.00;95231.00;5005103;28;20198;-80
2022/11/09 02:52:47;;;;;;;43.70;23.83;;;;;;;8.75;100.00;95223.81;5000842;28;20220;-80
2022/11/09 02:55:15;;;;;;;41.37;23.90;;;;;;;8.91;100.00;95243.44;5003581;28;20199;-80
2022/11/09 02:57:42;;;;;;;39.57;23.23;;;;;;;8.94;100.00;95232.69;5003863;28;20215;-79
2022/11/09 03:00:10;;;;;;;37.13;22.83;;;;;;;8.91;100.00;95223.50;4998696;28;20271;-79
2022/11/09 03:02:37;;;;;;;42.37;22.53;;;;;;;8.87;100.00;95230.06;5001695;28;20191;-78
2022/11/09 03:05:04;;;;;;;38.90;23.07;;;;;;;8.92;100.00;95232.88;5001513;28;20196;-77
2022/11/09 03:07:31;;;;;;;38.47;23.53;;;;;;;8.97;100.00;95229.72;5002024;28;20814;-79
2022/11/09 03:09:58;;;;;;;39.33;22.37;;;;;;;8.90;100.00;95232.28;4999548;28;20641;-78
2022/11/09 03:12:29;;;;;;;37.83;22.53;;;;;;;8.74;100.00;95237.78;5004561;28;20210;-79
2022/11/09 03:14:57;;;;;;;38.30;21.60;;;;;;;8.47;100.00;95231.66;4999884;28;20195;-77
2022/11/09 03:17:24;;;;;;;37.23;21.77;;;;;;;8.10;100.00;95226.81;5001300;28;20223;-79
2022/11/09 03:19:50;;;;;;;42.67;22.33;;;;;;;7.94;100.00;95238.22;5001248;28;20191;-79
2022/11/09 03:22:17;;;;;;;40.10;22.53;;;;;;;8.07;100.00;95234.94;5001476;28;20206;-78
2022/11/09 03:24:44;;;;;;;41.47;23.37;;;;;;;8.10;100.00;95233.75;5001156;28;20278;-78
2022/11/09 03:27:11;;;;;;;38.73;23.43;;;;;;;8.11;100.00;95225.78;4998949;28;20192;-77
2022/11/09 03:29:40;;;;;;;39.87;23.00;;;;;;;8.07;100.00;95227.19;4998746;28;20218;-78
2022/11/09 03:32:07;;;;;;;48.83;24.73;;;;;;;7.66;100.00;95221.88;5000886;28;20322;-78
2022/11/09 03:34:34;;;;;;;42.90;23.40;;;;;;;7.37;100.00;95227.16;4998678;28;20192;-79
2022/11/09 03:37:01;;;;;;;44.13;24.60;;;;;;;7.34;100.00;95223.16;5007287;28;20816;-79
2022/11/09 03:39:27;;;;;;;46.87;25.53;;;;;;;7.53;100.00;95239.06;4999662;28;20215;-78
2022/11/09 03:41:54;;;;;;;50.17;25.30;;;;;;;7.65;100.00;95238.34;5000193;28;20195;-78
2022/11/09 03:44:21;;;;;;;44.43;24.57;;;;;;;7.77;100.00;95241.25;5001425;28;20196;-79
2022/11/09 03:46:49;;;;;;;46.63;24.93;;;;;;;7.85;100.00;95248.91;5001099;28;20196;-78
2022/11/09 03:49:16;;;;;;;48.30;24.53;;;;;;;7.91;100.00;95248.94;4999223;28;20601;-78
2022/11/09 03:51:43;;;;;;;42.03;23.17;;;;;;;8.02;100.00;95245.84;5000977;28;20242;-79
2022/11/09 03:54:10;;;;;;;42.37;23.30;;;;;;;8.17;100.00;95250.13;4999133;28;20200;-79
2022/11/09 03:56:36;;;;;;;43.73;24.57;;;;;;;8.25;100.00;95237.88;5002191;28;20311;-79
2022/11/09 03:59:03;;;;;;;47.43;25.17;;;;;;;8.30;100.00;95240.72;5003816;28;20211;-79
2022/11/09 04:01:30;;;;;;;44.63;24.10;;;;;;;8.34;100.00;95243.72;4998075;28;20992;-78
2022/11/09 04:03:58;;;;;;;42.67;23.80;;;;;;;8.35;100.00;95240.13;4998082;28;20191;-79
2022/11/09 04:06:25;;;;;;;47.03;23.63;;;;;;;8.32;100.00;95237.94;5000776;28;20196;-79
2022/11/09 04:08:52;;;;;;;44.80;24.00;;;;;;;8.39;100.00;95239.59;4997262;28;20271;-80
2022/11/09 04:11:18;;;;;;;41.23;23.30;;;;;;;8.40;100.00;95238.56;5002089;28;20191;-81
2022/11/09 04:13:46;;;;;;;40.33;23.23;;;;;;;8.40;100.00;95243.75;4996305;28;20192;-80
2022/11/09 04:16:15;;;;;;;42.83;22.67;;;;;;;8.48;100.00;95248.00;4997702;28;20621;-80
2022/11/09 04:18:42;;;;;;;44.63;23.17;;;;;;;8.46;100.00;95243.00;5008926;28;20211;-80
2022/11/09 04:21:10;;;;;;;39.53;23.23;;;;;;;8.47;100.00;95254.16;5004582;28;20196;-79
2022/11/09 04:23:37;;;;;;;51.57;23.63;;;;;;;8.50;100.00;95249.41;5006411;28;20581;-81
2022/11/09 04:26:03;;;;;;;42.97;24.57;;;;;;;8.48;100.00;95242.81;5005030;28;20196;-81
2022/11/09 04:28:30;;;;;;;47.47;24.17;;;;;;;8.53;100.00;95245.63;5002890;28;20541;-79
2022/11/09 04:31:01;;;;;;;41.80;23.40;;;;;;;8.49;100.00;95237.44;5003404;28;20191;-77
2022/11/09 04:33:28;;;;;;;41.77;23.57;;;;;;;8.15;100.00;95227.03;5008191;28;20191;-78
2022/11/09 04:36:01;;;;;;;45.53;23.60;;;;;;;7.75;100.00;95235.47;5007911;28;20236;-77
2022/11/09 04:38:29;;;;;;;50.40;25.53;;;;;;;7.50;100.00;95242.81;5002868;28;20236;-78
2022/11/09 04:41:00;;;;;;;48.73;25.37;;;;;;;7.53;100.00;95239.06;5003260;28;20208;-78
2022/11/09 04:43:27;;;;;;;46.23;25.13;;;;;;;7.68;100.00;95240.56;5007758;28;20181;-76
2022/11/09 04:45:54;;;;;;;44.43;25.13;;;;;;;7.65;100.00;95229.78;4999289;28;20570;-78
2022/11/09 04:48:21;;;;;;;46.23;25.87;;;;;;;7.49;100.00;95242.97;5003940;28;20195;-79
2022/11/09 04:50:48;;;;;;;50.60;25.70;;;;;;;7.12;100.00;95242.22;5006668;28;20206;-77
2022/11/09 04:53:15;;;;;;;50.23;26.20;;;;;;;7.08;100.00;95246.13;5003724;28;20239;-80
2022/11/09 04:55:44;;;;;;;55.27;29.53;;;;;;;7.26;100.00;95246.53;5004709;28;20214;-79
2022/11/09 04:58:11;;;;;;;48.20;26.23;;;;;;;7.43;100.00;95254.88;5002175;28;20222;-79
2022/11/09 05:00:39;;;;;;;53.67;27.20;;;;;;;7.56;100.00;95249.03;5005643;28;20206;-78
2022/11/09 05:03:06;;;;;;;64.13;29.20;;;;;;;7.64;100.00;95249.72;5001612;28;20199;-78
2022/11/09 05:05:34;;;;;;;77.50;41.40;;;;;;;7.32;100.00;95247.59;5002444;28;20666;-79
2022/11/09 05:08:01;;;;;;;125.07;64.37;;;;;;;7.26;100.00;95251.72;5004519;28;20184;-80
2022/11/09 05:10:28;;;;;;;119.93;60.40;;;;;;;7.22;100.00;95255.63;5003994;28;20188;-82
2022/11/09 05:13:00;;;;;;;100.57;51.90;;;;;;;7.35;100.00;95254.97;5003306;28;20607;-81
2022/11/09 05:15:27;;;;;;;98.33;51.60;;;;;;;7.39;100.00;95244.09;4998614;28;20200;-82
2022/11/09 05:17:54;;;;;;;93.30;49.57;;;;;;;7.58;100.00;95254.81;5007960;28;20199;-81
2022/11/09 05:20:21;;;;;;;73.20;42.17;;;;;;;7.70;100.00;95261.91;5008156;28;20610;-81
2022/11/09 05:25:32;;;;;;;65.93;34.80;;;;;;;7.83;100.00;95272.38;5003163;28;20183;-78
2022/11/09 05:28:00;;;;;;;62.57;35.47;;;;;;;7.86;100.00;95272.00;5002816;28;20623;-76
2022/11/09 05:30:27;;;;;;;67.60;35.67;;;;;;;7.91;100.00;95272.22;4998696;28;20203;-77
2022/11/09 05:32:54;;;;;;;70.50;35.07;;;;;;;7.98;100.00;95272.28;5004220;28;20584;-79
2022/11/09 05:35:21;;;;;;;62.93;34.13;;;;;;;8.09;100.00;95276.16;5004684;28;20605;-77
2022/11/09 05:37:48;;;;;;;66.00;34.13;;;;;;;8.17;100.00;95265.66;5001295;28;20678;-80
2022/11/09 05:40:16;;;;;;;68.73;34.10;;;;;;;8.31;100.00;95275.97;5003988;28;20220;-77
2022/11/09 05:42:43;;;;;;;64.57;32.17;;;;;;;8.35;100.00;95276.38;5000914;28;20203;-77
2022/11/09 05:45:15;;;;;;;58.70;31.53;;;;;;;8.08;100.00;95277.16;5000000;28;20208;-78
2022/11/09 05:47:44;;;;;;;59.67;30.77;;;;;;;7.72;100.00;95269.47;5002383;28;20199;-77
2022/11/09 05:50:13;;;;;;;60.80;31.13;;;;;;;7.73;100.00;95277.06;5001056;28;20531;-76
2022/11/09 05:52:40;;;;;;;67.77;30.00;;;;;;;7.80;100.00;95287.44;5001228;28;20327;-74
2022/11/09 05:55:08;;;;;;;58.57;31.47;;;;;;;7.96;100.00;95285.41;5000608;28;20208;-80
2022/11/09 05:57:35;;;;;;;62.63;31.43;;;;;;;8.09;100.00;95291.69;5001214;28;20762;-75
2022/11/09 06:00:02;;;;;;;69.17;32.17;;;;;;;8.22;100.00;95297.00;4999121;28;20215;-78
2022/11/09 06:02:32;;;;;;;71.77;34.03;;;;;;;8.32;100.00;95303.47;5001005;28;20709;-79
2022/11/09 06:04:59;;;;;;;69.00;34.50;;;;;;;8.43;100.00;95300.34;4993552;28;20863;-79
2022/11/09 06:07:26;;;;;;;72.23;36.10;;;;;;;8.54;100.00;95301.66;5001177;28;20548;-79
2022/11/09 06:09:52;;;;;;;67.77;35.13;;;;;;;8.63;100.00;95308.25;5001865;28;20806;-79
2022/11/09 06:12:19;;;;;;;70.23;32.70;;;;;;;8.69;100.00;95312.69;5001142;28;20191;-79
2022/11/09 06:14:46;;;;;;;67.20;33.53;;;;;;;8.76;100.00;95305.75;5000603;28;20196;-78
2022/11/09 06:17:13;;;;;;;64.07;31.23;;;;;;;8.44;100.00;95264.91;5003424;28;20564;-79
2022/11/09 06:19:41;;;;;;;60.57;32.93;;;;;;;8.42;100.00;95314.31;4999491;28;20215;-78
2022/11/09 06:22:08;;;;;;;65.80;32.73;;;;;;;8.22;100.00;95315.09;5001451;28;20206;-79
2022/11/09 06:24:35;;;;;;;71.37;33.07;;;;;;;8.21;100.00;95311.72;5012237;28;20199;-79
2022/11/09 06:27:02;;;;;;;73.37;33.93;;;;;;;8.24;100.00;95305.34;5003632;28;20188;-79
2022/11/09 06:29:30;;;;;;;71.87;33.10;;;;;;;8.44;100.00;95314.91;5000317;28;20639;-79
2022/11/09 06:31:56;;;;;;;72.80;33.33;;;;;;;8.57;100.00;95316.00;4997941;28;20581;-79
2022/11/09 06:34:23;;;;;;;67.30;32.93;;;;;;;8.54;100.00;95306.81;4998910;28;20231;-79
2022/11/09 06:36:51;;;;;;;70.47;34.13;;;;;;;8.15;100.00;95314.25;4999647;28;20192;-79
2022/11/09 06:39:18;;;;;;;75.97;35.57;;;;;;;7.88;100.00;95303.66;4999481;28;20263;-79
2022/11/09 06:41:45;;;;;;;71.83;35.63;;;;;;;8.04;100.00;95310.38;4997028;28;20204;-79
2022/11/09 06:44:12;;;;;;;75.20;36.33;;;;;;;8.21;100.00;95303.94;5001821;28;20279;-79
2022/11/09 06:46:38;;;;;;;83.17;38.37;;;;;;;8.44;100.00;95314.91;5002353;28;20196;-80
2022/11/09 06:49:05;;;;;;;72.67;38.10;;;;;;;8.65;100.00;95310.69;4999805;28;20231;-79
2022/11/09 06:51:32;;;;;;;77.63;36.10;;;;;;;8.86;100.00;95313.97;4999662;28;20192;-80
2022/11/09 06:54:00;;;;;;;71.80;34.70;;;;;;;9.06;100.00;95319.31;5001474;28;20742;-79
2022/11/09 06:56:27;;;;;;;70.23;35.33;;;;;;;9.15;100.00;95309.56;4999204;28;20204;-76
2022/11/09 06:58:54;;;;;;;66.10;34.17;;;;;;;9.33;100.00;95315.81;5000617;28;20686;-76
2022/11/09 07:01:25;;;;;;;71.67;32.97;;;;;;;9.45;100.00;95314.28;4999890;28;20199;-76
2022/11/09 07:03:52;;;;;;;62.60;30.73;;;;;;;9.57;100.00;95311.91;5000629;28;20203;-77
2022/11/09 07:06:19;;;;;;;62.13;32.30;;;;;;;9.67;100.00;95313.13;5000182;28;20198;-76
2022/11/09 07:08:46;;;;;;;64.40;33.93;;;;;;;9.77;100.00;95315.38;4999577;28;20204;-76
2022/11/09 07:11:16;;;;;;;61.20;32.20;;;;;;;9.87;100.00;95315.00;5002870;28;20199;-76
2022/11/09 07:13:42;;;;;;;55.40;32.33;;;;;;;9.95;100.00;95313.00;4999362;28;20227;-77
2022/11/09 07:16:11;;;;;;;64.00;31.93;;;;;;;10.01;100.00;95311.41;5000649;28;20196;-79
2022/11/09 07:18:38;;;;;;;62.10;32.20;;;;;;;10.12;100.00;95308.22;5000505;28;20215;-76
2022/11/09 07:21:05;;;;;;;55.33;31.10;;;;;;;10.12;100.00;95303.84;5001079;28;20207;-77
2022/11/09 07:23:33;;;;;;;52.27;30.63;;;;;;;10.29;100.00;95311.25;5000664;28;20200;-75
2022/11/09 07:26:00;;;;;;;55.23;29.77;;;;;;;10.35;100.00;95315.66;4999731;28;20214;-75
2022/11/09 07:28:28;;;;;;;53.73;28.57;;;;;;;10.38;100.00;95316.06;5002077;28;20195;-77
2022/11/09 07:30:57;;;;;;;51.67;29.10;;;;;;;10.48;100.00;95313.84;5000707;28;20199;-76
2022/11/09 07:33:24;;;;;;;49.93;29.00;;;;;;;10.57;100.00;95319.66;5001494;28;20273;-76
2022/11/09 07:35:51;;;;;;;48.33;29.37;;;;;;;10.65;100.00;95311.63;5002951;28;20192;-78
2022/11/09 07:38:19;;;;;;;51.77;28.43;;;;;;;10.72;100.00;95309.84;5000038;28;20250;-76
2022/11/09 07:40:45;;;;;;;45.30;28.20;;;;;;;10.80;100.00;95312.22;5001289;28;20567;-77
2022/11/09 07:43:13;;;;;;;48.97;29.30;;;;;;;10.47;100.00;95309.69;4998742;28;20188;-77
2022/11/09 07:45:41;;;;;;;57.63;30.37;;;;;;;10.30;100.00;95313.69;5001787;28;20195;-76
2022/11/09 07:48:10;;;;;;;52.10;30.73;;;;;;;10.20;100.00;95306.28;4999933;28;20192;-76
2022/11/09 07:50:38;;;;;;;57.33;30.97;;;;;;;10.35;100.00;95313.06;5000592;28;20195;-75
2022/11/09 07:53:07;;;;;;;57.87;30.87;;;;;;;10.44;100.00;95311.88;5002269;28;20230;-77
2022/11/09 07:55:34;;;;;;;55.53;30.97;;;;;;;10.27;100.00;95306.28;5003068;28;20243;-77
2022/11/09 07:58:03;;;;;;;53.47;30.07;;;;;;;10.18;100.00;95312.66;5005583;28;20204;-77
2022/11/09 08:00:32;;;;;;;55.50;31.07;;;;;;;10.08;100.00;95299.22;5003506;28;20215;-77
2022/11/09 08:03:01;;;;;;;54.90;31.13;;;;;;;10.34;100.00;95314.06;5001305;28;20243;-77
2022/11/09 08:05:28;;;;;;;55.80;30.60;;;;;;;10.50;100.00;95306.69;5005945;28;20199;-78
2022/11/09 08:07:56;;;;;;;53.83;31.53;;;;;;;10.77;100.00;95315.22;5006352;28;20234;-76
2022/11/09 08:10:24;;;;;;;62.67;30.27;;;;;;;11.01;100.00;95319.00;5005167;28;20234;-76
2022/11/09 08:12:55;;;;;;;55.73;30.13;;;;;;;11.09;100.00;95318.75;5006263;28;20666;-77
2022/11/09 08:15:22;;;;;;;56.60;30.50;;;;;;;10.95;100.00;95312.81;5002742;28;20193;-74
2022/11/09 08:17:48;;;;;;;50.07;29.33;;;;;;;11.00;100.00;95317.38;5004905;28;20192;-76
2022/11/09 08:20:18;;;;;;;48.80;28.30;;;;;;;11.17;100.00;95319.34;5004224;28;20215;-77
2022/11/09 08:22:45;;;;;;;54.37;29.57;;;;;;;11.38;100.00;95315.66;5003142;28;20204;-75
2022/11/09 08:25:13;;;;;;;47.30;29.80;;;;;;;11.55;100.00;95311.59;5003625;28;20302;-74
2022/11/09 08:27:40;;;;;;;53.57;29.33;;;;;;;11.73;100.00;95308.34;5004180;28;20203;-75
2022/11/09 08:30:11;;;;;;;47.87;28.90;;;;;;;11.89;100.00;95313.03;5001559;28;20222;-74
2022/11/09 08:32:38;;;;;;;52.77;29.47;;;;;;;12.07;100.00;95312.34;5002322;28;20192;-77
2022/11/09 08:35:06;;;;;;;45.13;29.07;;;;;;;12.18;100.00;95307.25;5002225;28;20192;-77
2022/11/09 08:37:35;;;;;;;51.97;29.57;;;;;;;12.27;100.00;95311.19;5003807;28;20192;-76
2022/11/09 08:40:02;;;;;;;53.77;30.47;;;;;;;12.23;100.00;95315.25;5004215;28;20569;-76
2022/11/09 08:42:29;;;;;;;49.37;29.87;;;;;;;12.00;100.00;95315.00;5001943;28;20272;-76
2022/11/09 08:44:55;;;;;;;50.07;30.27;;;;;;;11.82;100.00;95312.28;5004709;28;20200;-77
2022/11/09 08:47:22;;;;;;;63.13;31.63;;;;;;;12.00;100.00;95315.00;5002621;28;20195;-76
2022/11/09 08:49:49;;;;;;;58.17;31.83;;;;;;;12.18;100.00;95314.28;5002502;28;20195;-76
2022/11/09 08:52:16;;;;;;;54.47;31.07;;;;;;;12.45;100.00;95315.66;5004726;28;20227;-76
2022/11/09 08:54:44;;;;;;;51.03;31.33;;;;;;;12.71;100.00;95312.84;5002268;28;20577;-77
2022/11/09 08:57:11;;;;;;;57.50;31.13;;;;;;;12.88;100.00;95313.88;5004068;28;20616;-76
2022/11/09 08:59:38;;;;;;;48.23;29.60;;;;;;;13.09;100.00;95312.72;5004258;28;20223;-77
2022/11/09 09:02:05;;;;;;;56.97;31.63;;;;;;;13.28;100.00;95308.28;5003620;28;20206;-76
2022/11/09 09:04:32;;;;;;;58.00;30.83;;;;;;;13.41;100.00;95316.78;5000238;28;20681;-76
2022/11/09 09:07:00;;;;;;;53.23;30.30;;;;;;;13.48;99.62;95319.28;5002875;28;20196;-76
2022/11/09 09:09:26;;;;;;;51.13;30.73;;;;;;;13.67;98.53;95320.06;5004414;28;20192;-76
2022/11/09 09:11:55;;;;;;;51.37;29.93;;;;;;;14.12;97.36;95314.22;5002802;28;20279;-77
2022/11/09 09:14:22;;;;;;;49.97;30.60;;;;;;;14.98;92.82;95320.75;5001824;28;20183;-76
2022/11/09 09:16:48;;;;;;;54.07;29.77;;;;;;;15.88;89.34;95321.81;5002054;28;20204;-76
2022/11/09 09:19:15;;;;;;;51.43;29.60;;;;;;;16.98;83.21;95320.28;5002840;28;20226;-76
2022/11/09 09:21:42;;;;;;;48.73;30.90;;;;;;;18.00;79.68;95325.81;5002139;28;20200;-78
2022/11/09 09:24:09;;;;;;;54.23;30.53;;;;;;;19.12;75.32;95331.00;5000859;28;20199;-76
2022/11/09 09:26:36;;;;;;;52.77;30.87;;;;;;;20.19;71.50;95330.44;5003050;28;20200;-76
2022/11/09 09:29:04;;;;;;;45.77;29.83;;;;;;;20.13;70.19;95328.84;5001412;28;20203;-76
2022/11/09 09:31:31;;;;;;;50.33;30.17;;;;;;;19.49;71.53;95327.53;5001641;28;20588;-76
2022/11/09 09:33:58;;;;;;;48.07;31.60;;;;;;;18.87;73.39;95322.94;5001612;28;20203;-76
2022/11/09 09:36:25;;;;;;;46.27;29.60;;;;;;;18.24;75.53;95322.88;5001301;28;20199;-76
2022/11/09 09:38:52;;;;;;;46.90;31.33;;;;;;;18.21;75.82;95313.63;5003029;28;20188;-76
2022/11/09 09:41:27;;;;;;;49.97;31.03;;;;;;;18.56;75.39;95311.34;5004650;28;20607;-80
2022/11/09 09:43:57;;;;;;;49.60;30.20;;;;;;;19.60;71.31;95316.78;4999789;28;20841;-79
2022/11/09 09:46:32;;;;;;;51.10;30.30;;;;;;;20.34;69.23;95309.38;5002234;28;20188;-79
2022/11/09 09:49:04;;;;;;;49.10;31.37;;;;;;;20.71;66.53;95310.97;5002378;28;20179;-79
2022/11/09 09:51:41;;;;;;;51.47;31.63;;;;;;;21.19;65.18;95312.25;5010230;28;20201;-79
2022/11/09 09:54:19;;;;;;;50.80;30.08;;;;;;;21.84;63.81;95313.91;5007003;28;20645;-79
2022/11/09 09:56:49;;;;;;;44.05;28.83;;;;;;;22.39;61.87;95315.50;5001354;28;20301;-80
2022/11/09 09:59:23;;;;;;;55.85;29.88;;;;;;;22.71;60.54;95301.78;5001943;28;20203;-79
2022/11/09 10:01:52;;;;;;;47.13;30.08;;;;;;;23.21;58.75;95314.56;5000383;28;20550;-74
2022/11/09 10:04:23;;;;;;;41.97;29.27;;;;;;;23.62;56.92;95304.34;5001383;28;20203;-75
2022/11/09 10:07:02;;;;;;;47.53;28.10;;;;;;;23.87;56.27;95321.81;4999098;28;20576;-77
2022/11/09 10:09:41;;;;;;;41.35;28.42;;;;;;;23.96;53.51;95310.28;5000698;28;20281;-76
2022/11/09 10:12:20;;;;;;;45.55;29.23;;;;;;;23.85;54.04;95302.75;5001086;28;20184;-76
2022/11/09 10:15:13;;;;;;;47.42;30.17;;;;;;;24.25;53.21;95299.56;5002583;28;20188;-76
2022/11/09 10:17:51;;;;;;;50.72;29.77;;;;;;;24.70;51.93;95306.84;5002750;28;20191;-75
2022/11/09 10:20:32;;;;;;;42.08;28.02;;;;;;;25.05;50.59;95300.19;4997876;28;20205;-80
2022/11/09 10:23:18;;;;;;;41.45;28.40;;;;;;;25.25;49.43;95302.50;5000663;28;20195;-76
2022/11/09 10:25:49;;;;;;;41.90;28.85;;;;;;;25.73;47.90;95302.16;4998131;28;21173;-76
2022/11/09 10:28:17;;;;;;;45.35;27.55;;;;;;;26.02;47.50;95304.50;5002776;28;20274;-79
2022/11/09 10:30:45;;;;;;;37.38;26.25;;;;;;;26.33;44.88;95308.91;5006729;28;20198;-80
2022/11/09 10:33:19;;;;;;;38.85;25.40;;;;;;;26.41;44.74;95296.72;5003250;28;20200;-80
2022/11/09 10:35:50;;;;;;;39.42;26.95;;;;;;;26.55;44.34;95300.16;5005957;28;20206;-78
2022/11/09 10:38:23;;;;;;;39.15;26.67;;;;;;;25.83;44.80;95297.41;5003155;28;20203;-77
2022/11/09 10:40:54;;;;;;;38.45;26.45;;;;;;;25.95;45.08;95292.38;5003014;28;20234;-79
2022/11/09 10:43:21;;;;;;;41.08;27.13;;;;;;;26.04;45.16;95289.78;4997274;28;20644;-80
2022/11/09 10:45:58;;;;;;;42.33;27.23;;;;;;;26.11;45.33;95290.19;4997389;28;20680;-78
2022/11/09 10:48:33;;;;;;;42.85;27.83;;;;;;;26.27;46.13;95280.78;5005262;28;20194;-78
2022/11/09 10:50:59;;;;;;;46.17;28.00;;;;;;;26.32;45.55;95282.56;5000447;28;20210;-78
2022/11/09 10:53:28;;;;;;;39.53;26.95;;;;;;;26.35;45.60;95277.38;5003398;28;20672;-77
2022/11/09 10:55:57;;;;;;;38.25;26.55;;;;;;;26.31;45.51;95275.63;5001331;28;20227;-80
2022/11/09 10:58:32;;;;;;;41.97;27.27;;;;;;;26.05;45.48;95272.72;4999066;28;20253;-78
2022/11/09 11:01:01;;;;;;;39.53;27.83;;;;;;;26.34;44.98;95273.16;4996758;28;20670;-81
2022/11/09 11:03:29;;;;;;;40.58;26.77;;;;;;;26.35;44.52;95263.25;5000171;28;20200;-76
2022/11/09 11:06:02;;;;;;;38.58;28.17;;;;;;;26.43;44.64;95268.69;5000832;28;20195;-77
2022/11/09 11:08:33;;;;;;;43.20;27.27;;;;;;;26.44;44.45;95258.78;5003705;28;20200;-79
2022/11/09 11:11:17;;;;;;;43.15;26.40;;;;;;;26.50;44.31;95261.03;4999824;28;20202;-80
2022/11/09 11:13:45;;;;;;;41.65;26.20;;;;;;;26.58;44.35;95259.50;4999075;28;20251;-81
2022/11/09 11:16:36;;;;;;;37.53;26.30;;;;;;;26.69;44.05;95265.41;4998820;28;20191;-80
2022/11/09 11:19:04;;;;;;;42.97;27.85;;;;;;;26.57;43.65;95254.50;4988279;28;20205;-80
2022/11/09 11:21:32;;;;;;;38.83;26.15;;;;;;;26.22;44.51;95261.44;5000535;28;20254;-81
2022/11/09 11:24:13;;;;;;;37.83;26.42;;;;;;;25.91;44.64;95250.66;5004678;28;20199;-80